Portada
METAR-TAF:

METAR-TAF

Aeropuertos :

Aeropuerto de Granada

Granada, España

latitud: 37-11N, longitud: 003-47W, altitud: 567 m

Observación

El informe se hizo hace 20 minutos, a las 13:30 UTC
Viento calma
Temperatura 11°C
Humedad 50%
Presión 1018 hPa
Visibilidad 10 km o más
Nubes dispersas a una altura de 4500 ft

METAR: LEGR 181330Z 00000KT 9999 SCT045 11/01 Q1018

Hora: 14:50 (13:50 UTC)

Pronóstico

El informe se hizo hace 5 horas y 50 minutos, a las 08:00 UTC
Pronóstico válido del 18 a las 09 UTC al 19 a las 09 UTC
Viento 5 kt del noroeste
Visibilidad 10 km o más
Escasas nubes a una altura de 4000 ft
Probabilidad 30% :
Temporalmente
del 19 a las 03 UTC al 19 a las 09 UTC
Visibilidad: 3000 m
neblina

TAF: LEGR 180800Z 1809/1909 31005KT 9999 FEW040 TX13/1815Z TNM02/1907Z PROB30 TEMPO 1903/1909 3000 BR

Observaciones y pronósticos meteorológicos de más de 4000 aeropuertos (mensajes METAR y TAF).

Los puntos amarillos y rojos representan las estaciones disponibles.

Ponga el ratón en el punto deseado para ver el nombre de la estación.

Haga clic para ver las observaciones y los pronósticos meteorológicos.

Para cambiar el mapa : haga clic en los botones verdes con una cruz de color negro para hacer un zoom, en el botón verde con un guión para alejar o en las flechas verdes para mapas adyacentes.


METAR-TAF: